createdAt,value
2023-03-21T00:01:50.394Z,10.02
2023-03-21T00:04:17.598Z,8.40
2023-03-21T00:06:44.288Z,9.13
2023-03-21T00:09:12.131Z,9.07
2023-03-21T00:11:38.722Z,9.40
2023-03-21T00:14:08.711Z,9.18
2023-03-21T00:16:37.149Z,8.90
2023-03-21T00:19:06.267Z,8.80
2023-03-21T00:21:46.619Z,8.93
2023-03-21T00:24:18.798Z,7.35
2023-03-21T00:26:46.036Z,8.52
2023-03-21T00:29:12.816Z,9.60
2023-03-21T00:31:39.405Z,9.85
2023-03-21T00:34:06.059Z,9.18
2023-03-21T00:36:32.669Z,9.13
2023-03-21T00:39:00.711Z,9.52
2023-03-21T00:41:41.367Z,9.90
2023-03-21T00:44:10.191Z,9.80
2023-03-21T00:46:45.580Z,9.45
2023-03-21T00:49:16.012Z,10.35
2023-03-21T00:51:43.533Z,10.10
2023-03-21T00:54:12.616Z,9.25
2023-03-21T00:56:39.213Z,10.18
2023-03-21T00:59:06.290Z,9.98
2023-03-21T01:01:32.950Z,9.68
2023-03-21T01:04:05.621Z,8.88
2023-03-21T01:06:39.456Z,10.23
2023-03-21T01:09:07.972Z,10.52
2023-03-21T01:11:35.273Z,10.13
2023-03-21T01:14:18.705Z,9.30
2023-03-21T01:16:48.682Z,10.35
2023-03-21T01:19:25.557Z,10.75
2023-03-21T01:21:55.755Z,10.25
2023-03-21T01:24:22.452Z,10.75
2023-03-21T01:26:49.082Z,11.05
2023-03-21T01:29:15.662Z,11.02
2023-03-21T01:31:42.341Z,11.35
2023-03-21T01:34:08.975Z,11.75
2023-03-21T01:36:35.599Z,11.80
2023-03-21T01:39:02.302Z,11.35
2023-03-21T01:41:47.504Z,10.02
2023-03-21T01:44:19.421Z,9.88
2023-03-21T01:46:57.398Z,10.10
2023-03-21T01:49:47.900Z,10.85
2023-03-21T01:52:29.594Z,10.77
2023-03-21T01:55:02.240Z,12.05
2023-03-21T01:57:42.439Z,12.02
2023-03-21T02:00:15.413Z,10.75
2023-03-21T02:02:52.528Z,11.27
2023-03-21T02:05:27.232Z,11.85
2023-03-21T02:07:53.825Z,11.75
2023-03-21T02:10:21.320Z,11.43
2023-03-21T02:12:48.195Z,11.98
2023-03-21T02:15:15.998Z,11.45
2023-03-21T02:17:51.859Z,12.32
2023-03-21T02:20:25.159Z,11.90
2023-03-21T02:23:17.707Z,12.32
2023-03-21T02:26:02.595Z,12.60
2023-03-21T02:28:47.135Z,11.68
2023-03-21T02:31:36.229Z,11.95
2023-03-21T02:34:24.634Z,11.32
2023-03-21T02:37:38.367Z,12.88
2023-03-21T02:40:32.273Z,12.07
2023-03-21T02:43:23.650Z,12.55
2023-03-21T02:45:57.915Z,12.25
2023-03-21T02:48:48.243Z,11.77
2023-03-21T02:51:20.407Z,12.88
2023-03-21T02:54:10.223Z,12.05
2023-03-21T02:56:41.286Z,12.07
2023-03-21T02:59:08.775Z,12.10
2023-03-21T03:01:35.541Z,12.25
2023-03-21T03:04:02.317Z,12.20
2023-03-21T03:06:38.956Z,13.73
2023-03-21T03:09:47.973Z,12.88
2023-03-21T03:12:25.305Z,11.82
2023-03-21T03:15:17.693Z,12.70
2023-03-21T03:17:52.099Z,12.18
2023-03-21T03:20:34.874Z,11.52
2023-03-21T03:23:25.755Z,12.70
2023-03-21T03:26:18.360Z,12.60
2023-03-21T03:28:51.495Z,12.82
2023-03-21T03:31:37.680Z,12.45
2023-03-21T03:34:11.806Z,12.45
2023-03-21T03:36:43.066Z,12.18
2023-03-21T03:39:12.082Z,12.98
2023-03-21T03:42:12.556Z,14.27
2023-03-21T03:44:34.906Z,13.23
2023-03-21T03:47:06.376Z,13.38
2023-03-21T03:49:43.196Z,11.90
2023-03-21T03:52:12.397Z,13.70
2023-03-21T03:54:44.052Z,13.93
2023-03-21T03:57:13.713Z,13.60
2023-03-21T03:59:45.701Z,11.93
2023-03-21T04:02:12.842Z,12.90
2023-03-21T04:04:40.031Z,14.07
2023-03-21T04:07:07.646Z,12.57
2023-03-21T04:09:44.240Z,14.20
2023-03-21T04:12:12.857Z,15.00
2023-03-21T04:14:45.716Z,13.95
2023-03-21T04:17:12.597Z,13.43
2023-03-21T04:19:39.166Z,12.88
2023-03-21T04:22:05.839Z,13.15
2023-03-21T04:24:33.733Z,13.38
2023-03-21T04:27:00.898Z,12.90
2023-03-21T04:29:29.547Z,12.73
2023-03-21T04:31:56.459Z,12.90
2023-03-21T04:34:24.091Z,13.18
2023-03-21T04:36:53.907Z,13.90
2023-03-21T04:39:20.961Z,13.48
2023-03-21T04:41:48.190Z,12.80
2023-03-21T04:44:16.460Z,12.13
2023-03-21T04:46:43.575Z,12.57
2023-03-21T04:49:10.743Z,11.98
2023-03-21T04:51:37.826Z,12.98
2023-03-21T04:54:05.770Z,13.95
2023-03-21T04:56:33.718Z,12.05
2023-03-21T04:59:06.969Z,13.88
2023-03-21T05:01:33.970Z,12.45
2023-03-21T05:04:02.002Z,13.80
2023-03-21T05:06:29.184Z,12.15
2023-03-21T05:09:01.390Z,13.20
2023-03-21T05:11:30.696Z,12.57
2023-03-21T05:13:58.313Z,14.02
2023-03-21T05:16:27.062Z,13.05
2023-03-21T05:18:55.590Z,13.15
2023-03-21T05:21:22.989Z,12.68
2023-03-21T05:23:54.504Z,13.15
2023-03-21T05:26:22.988Z,12.93
2023-03-21T05:28:50.513Z,14.13
2023-03-21T05:31:18.459Z,13.88
2023-03-21T05:33:45.739Z,12.45
2023-03-21T05:36:12.600Z,13.13
2023-03-21T05:38:42.670Z,12.80
2023-03-21T05:41:10.824Z,13.65
2023-03-21T05:43:37.461Z,13.57
2023-03-21T05:46:04.339Z,13.25
2023-03-21T05:48:30.906Z,13.77
2023-03-21T05:50:57.465Z,13.18
2023-03-21T05:53:24.069Z,14.23
2023-03-21T05:55:50.602Z,13.75
2023-03-21T05:58:19.632Z,12.65
2023-03-21T06:00:46.500Z,12.30
2023-03-21T06:03:13.121Z,13.32
2023-03-21T06:05:39.974Z,13.45
2023-03-21T06:08:06.817Z,12.25
2023-03-21T06:10:33.404Z,13.02
2023-03-21T06:13:00.048Z,12.85
2023-03-21T06:15:26.737Z,12.63
2023-03-21T06:17:53.496Z,13.25
2023-03-21T06:20:20.125Z,11.13
2023-03-21T06:22:46.671Z,13.18
2023-03-21T06:25:13.901Z,12.13
2023-03-21T06:27:43.828Z,12.23
2023-03-21T06:30:11.010Z,13.07
2023-03-21T06:32:37.691Z,14.00
2023-03-21T06:35:05.216Z,11.90
2023-03-21T06:37:31.866Z,12.90
2023-03-21T06:39:58.393Z,12.60
2023-03-21T06:42:25.202Z,13.05
2023-03-21T06:44:51.791Z,11.55
2023-03-21T06:47:18.382Z,13.05
2023-03-21T06:49:45.663Z,13.07
2023-03-21T06:52:12.243Z,12.27
2023-03-21T06:54:38.950Z,13.10
2023-03-21T06:57:05.586Z,12.55
2023-03-21T06:59:32.152Z,12.23
2023-03-21T07:01:59.046Z,13.82
2023-03-21T07:04:26.915Z,13.45
2023-03-21T07:06:53.582Z,13.25
2023-03-21T07:09:24.348Z,13.07
2023-03-21T07:11:56.117Z,13.55
2023-03-21T07:14:23.792Z,14.10
2023-03-21T07:16:50.464Z,12.30
2023-03-21T07:19:19.314Z,13.55
2023-03-21T07:21:46.234Z,13.75
2023-03-21T07:24:12.976Z,13.57
2023-03-21T07:26:40.372Z,13.20
2023-03-21T07:29:06.968Z,13.85
2023-03-21T07:31:33.552Z,13.93
2023-03-21T07:34:00.467Z,15.00
2023-03-21T07:36:29.793Z,13.40
2023-03-21T07:38:56.428Z,14.45
2023-03-21T07:41:23.030Z,14.70
2023-03-21T07:43:49.615Z,15.38
2023-03-21T07:46:17.162Z,15.55
2023-03-21T07:48:43.760Z,14.60
2023-03-21T07:51:12.326Z,14.02
2023-03-21T07:53:41.704Z,14.70
2023-03-21T07:56:08.829Z,15.15
2023-03-21T07:58:36.449Z,16.08
2023-03-21T08:01:04.319Z,14.52
2023-03-21T08:03:33.124Z,15.98
2023-03-21T08:06:03.388Z,15.93
2023-03-21T08:08:30.251Z,17.05
2023-03-21T08:10:56.907Z,16.95
2023-03-21T08:13:23.552Z,15.20
2023-03-21T08:15:50.174Z,17.25
2023-03-21T08:18:18.630Z,16.95
2023-03-21T08:20:45.513Z,16.25
2023-03-21T08:23:15.344Z,17.35
2023-03-21T08:25:41.870Z,17.05
2023-03-21T08:28:08.441Z,17.48
2023-03-21T08:30:35.354Z,17.50
2023-03-21T08:33:04.012Z,15.50
2023-03-21T08:35:31.592Z,17.15
2023-03-21T08:37:58.242Z,16.65
2023-03-21T08:40:24.817Z,17.23
2023-03-21T08:42:51.401Z,15.88
2023-03-21T08:45:20.102Z,15.63
2023-03-21T08:47:47.236Z,17.58
2023-03-21T08:50:17.403Z,16.08
2023-03-21T08:52:44.424Z,16.92
2023-03-21T08:55:12.457Z,15.10
2023-03-21T08:57:39.147Z,15.25
2023-03-21T09:00:20.560Z,16.42
2023-03-21T09:02:49.543Z,15.93
2023-03-21T09:05:16.828Z,16.35
2023-03-21T09:07:44.429Z,16.77
2023-03-21T09:10:21.029Z,16.63
2023-03-21T09:12:53.686Z,14.60
2023-03-21T09:15:21.827Z,16.55
2023-03-21T09:17:53.677Z,15.23
2023-03-21T09:20:27.426Z,16.80
2023-03-21T09:22:54.145Z,17.80
2023-03-21T09:25:21.330Z,16.73
2023-03-21T09:27:48.093Z,16.58
2023-03-21T09:30:17.330Z,17.65
2023-03-21T09:32:49.873Z,18.58
2023-03-21T09:35:18.748Z,15.52
2023-03-21T09:37:47.265Z,16.67
2023-03-21T09:40:54.771Z,16.98
2023-03-21T09:43:50.139Z,17.75
2023-03-21T09:46:25.313Z,16.05
2023-03-21T09:49:07.681Z,16.77
2023-03-21T09:51:41.460Z,17.40
2023-03-21T09:54:20.837Z,16.90
2023-03-21T09:56:50.694Z,15.75
2023-03-21T09:59:40.049Z,16.92
2023-03-21T10:02:40.380Z,15.48
2023-03-21T10:05:29.246Z,17.00
2023-03-21T10:07:56.273Z,15.55
2023-03-21T10:10:29.660Z,15.82
2023-03-21T10:12:56.856Z,17.05
2023-03-21T10:15:27.816Z,15.95
2023-03-21T10:18:01.787Z,15.93
2023-03-21T10:20:35.321Z,15.85
2023-03-21T10:23:06.631Z,15.38
2023-03-21T10:25:38.621Z,13.75
2023-03-21T10:28:07.771Z,13.70
2023-03-21T10:30:50.951Z,13.25
2023-03-21T10:33:22.665Z,13.00
2023-03-21T10:36:09.236Z,12.77
2023-03-21T10:38:40.772Z,11.85
2023-03-21T10:41:07.487Z,13.38
2023-03-21T10:43:40.646Z,13.77
2023-03-21T10:46:15.633Z,11.63
2023-03-21T10:48:47.399Z,12.43
2023-03-21T10:51:20.772Z,13.02
2023-03-21T10:53:54.867Z,12.63
2023-03-21T10:56:29.031Z,10.48
2023-03-21T10:59:00.100Z,11.27
2023-03-21T11:01:37.516Z,10.13
2023-03-21T11:04:15.997Z,12.98
2023-03-21T11:06:48.257Z,10.93
2023-03-21T11:09:20.205Z,9.45
2023-03-21T11:12:01.591Z,11.45
2023-03-21T11:14:39.271Z,11.73
2023-03-21T11:17:20.665Z,10.77
2023-03-21T11:19:49.482Z,10.00
2023-03-21T11:22:18.434Z,12.05
2023-03-21T11:24:51.319Z,10.70
2023-03-21T11:27:21.395Z,10.70
2023-03-21T11:29:51.027Z,10.45
2023-03-21T11:32:33.764Z,11.50
2023-03-21T11:35:05.185Z,12.15
2023-03-21T11:37:37.474Z,11.23
2023-03-21T11:40:19.405Z,12.80
2023-03-21T11:42:49.670Z,11.20
2023-03-21T11:45:19.543Z,10.40
2023-03-21T11:47:47.727Z,11.18
2023-03-21T11:50:41.773Z,10.40
2023-03-21T11:53:48.323Z,9.82
2023-03-21T11:56:34.544Z,11.15
2023-03-21T11:59:10.502Z,10.63
2023-03-21T12:02:04.076Z,9.23
2023-03-21T12:05:00.918Z,10.52
2023-03-21T12:07:49.212Z,8.75
2023-03-21T12:10:32.375Z,9.50
2023-03-21T12:13:26.931Z,9.02
2023-03-21T12:16:22.373Z,10.68
2023-03-21T12:18:51.990Z,10.98
2023-03-21T12:21:34.690Z,11.02
2023-03-21T12:24:24.416Z,10.18
2023-03-21T12:27:13.201Z,10.30
2023-03-21T12:29:59.509Z,9.98
2023-03-21T12:32:44.094Z,9.27
2023-03-21T12:35:36.849Z,10.55
2023-03-21T12:38:15.940Z,9.68
2023-03-21T12:41:03.023Z,8.90
2023-03-21T12:43:48.251Z,9.55
2023-03-21T12:46:29.248Z,8.75
2023-03-21T12:49:02.648Z,9.32
2023-03-21T12:51:32.637Z,8.63
2023-03-21T12:54:08.661Z,9.20
2023-03-21T12:56:58.613Z,8.50
2023-03-21T12:59:47.338Z,8.55
2023-03-21T13:02:17.159Z,7.88
2023-03-21T13:05:18.278Z,9.43
2023-03-21T13:07:51.618Z,8.77
2023-03-21T13:10:21.051Z,7.97
2023-03-21T13:13:13.492Z,8.45
2023-03-21T13:15:55.315Z,8.15
2023-03-21T13:18:35.470Z,7.80
2023-03-21T13:21:12.987Z,8.05
2023-03-21T13:23:40.167Z,7.32
2023-03-21T13:26:11.198Z,7.93
2023-03-21T13:28:40.925Z,8.55
2023-03-21T13:31:16.830Z,7.00
2023-03-21T13:33:47.300Z,7.78
2023-03-21T13:36:25.625Z,7.50
2023-03-21T13:38:59.628Z,8.05
2023-03-21T13:41:35.592Z,8.25
2023-03-21T13:44:02.195Z,7.80
2023-03-21T13:46:28.849Z,7.88
2023-03-21T13:48:59.943Z,7.70
2023-03-21T13:51:29.618Z,7.72
2023-03-21T13:54:08.448Z,8.07
2023-03-21T13:56:47.416Z,8.55
2023-03-21T13:59:17.556Z,7.70
2023-03-21T14:02:12.964Z,8.48
2023-03-21T14:04:59.999Z,8.10
2023-03-21T14:07:36.500Z,8.65
2023-03-21T14:10:10.616Z,8.82
2023-03-21T14:12:42.056Z,9.27
2023-03-21T14:15:22.763Z,9.88
2023-03-21T14:18:10.806Z,8.02
2023-03-21T14:20:56.434Z,8.65
2023-03-21T14:23:24.180Z,8.05
2023-03-21T14:25:51.665Z,8.60
2023-03-21T14:28:28.534Z,7.97
2023-03-21T14:30:59.886Z,7.93
2023-03-21T14:33:41.533Z,8.63
2023-03-21T14:36:17.021Z,9.02
2023-03-21T14:38:43.901Z,8.40
2023-03-21T14:41:24.556Z,8.13
2023-03-21T14:44:09.135Z,9.05
2023-03-21T14:46:35.789Z,8.68
2023-03-21T14:49:26.652Z,8.30
2023-03-21T14:51:56.156Z,8.00
2023-03-21T14:54:24.639Z,8.40
2023-03-21T14:57:04.171Z,9.15
2023-03-21T14:59:36.717Z,8.95
2023-03-21T15:02:15.505Z,8.82
2023-03-21T15:04:44.492Z,7.78
2023-03-21T15:07:24.878Z,8.15
2023-03-21T15:09:58.000Z,8.93
2023-03-21T15:12:26.994Z,8.20
2023-03-21T15:14:54.356Z,8.82
2023-03-21T15:17:23.708Z,8.63
2023-03-21T15:19:52.235Z,8.45
2023-03-21T15:22:35.082Z,9.13
2023-03-21T15:25:08.043Z,9.60
2023-03-21T15:27:39.914Z,9.30
2023-03-21T15:30:07.365Z,9.10
2023-03-21T15:32:36.559Z,9.15
2023-03-21T15:35:13.228Z,7.43
2023-03-21T15:37:41.618Z,8.43
2023-03-21T15:40:23.621Z,8.40
2023-03-21T15:42:52.466Z,8.77
2023-03-21T15:45:23.759Z,8.32
2023-03-21T15:50:50.690Z,8.48
2023-03-21T15:53:24.886Z,7.75
2023-03-21T15:56:02.460Z,8.38
2023-03-21T15:58:40.721Z,7.38
2023-03-21T16:01:15.957Z,9.00
2023-03-21T16:03:46.117Z,7.40
2023-03-21T16:06:14.191Z,7.40
2023-03-21T16:08:45.899Z,7.63
2023-03-21T16:11:18.712Z,7.32
2023-03-21T16:13:45.868Z,7.30
2023-03-21T16:16:27.051Z,7.55
2023-03-21T16:18:55.447Z,7.47
2023-03-21T16:21:24.474Z,7.93
2023-03-21T16:23:51.112Z,7.78
2023-03-21T16:26:21.304Z,7.80
2023-03-21T16:28:49.129Z,8.50
2023-03-21T16:31:21.106Z,8.27
2023-03-21T16:33:48.869Z,7.15
2023-03-21T16:36:22.846Z,6.95
2023-03-21T16:38:50.236Z,6.28
2023-03-21T16:41:17.176Z,7.22
2023-03-21T16:43:45.610Z,7.10
2023-03-21T16:46:17.066Z,7.30
2023-03-21T16:48:46.167Z,7.53
2023-03-21T16:51:21.539Z,7.05
2023-03-21T16:53:49.204Z,6.18
2023-03-21T16:56:24.827Z,6.05
2023-03-21T16:58:53.937Z,7.15
2023-03-21T17:01:25.915Z,6.13
2023-03-21T17:03:53.206Z,6.78
2023-03-21T17:06:24.231Z,5.63
2023-03-21T17:08:51.573Z,6.25
2023-03-21T17:11:20.351Z,8.20
2023-03-21T17:13:51.925Z,6.53
2023-03-21T17:16:26.567Z,7.35
2023-03-21T17:18:53.715Z,6.90
2023-03-21T17:21:23.141Z,6.35
2023-03-21T17:23:51.641Z,8.00
2023-03-21T17:26:24.318Z,6.50
2023-03-21T17:28:53.582Z,6.60
2023-03-21T17:31:23.845Z,7.50
2023-03-21T17:33:50.926Z,7.63
2023-03-21T17:36:20.423Z,8.00
2023-03-21T17:38:47.500Z,6.10
2023-03-21T17:41:17.510Z,7.32
2023-03-21T17:43:44.215Z,6.72
2023-03-21T17:46:13.980Z,7.57
2023-03-21T17:48:41.150Z,6.97
2023-03-21T17:51:08.658Z,7.38
2023-03-21T17:53:35.666Z,8.60
2023-03-21T17:56:02.264Z,6.95
2023-03-21T17:58:29.104Z,8.82
2023-03-21T18:00:55.755Z,8.15
2023-03-21T18:03:22.386Z,8.52
2023-03-21T18:05:48.951Z,8.88
2023-03-21T18:08:15.872Z,8.27
2023-03-21T18:10:42.997Z,8.23
2023-03-21T18:13:10.099Z,8.30
2023-03-21T18:15:38.172Z,7.65
2023-03-21T18:18:05.634Z,8.73
2023-03-21T18:23:19.820Z,8.23
2023-03-21T18:25:47.024Z,8.85
2023-03-21T18:28:13.930Z,9.05
2023-03-21T18:31:09.641Z,9.55
2023-03-21T18:33:28.649Z,9.32
2023-03-21T18:35:59.664Z,8.68
2023-03-21T18:38:27.780Z,8.43
2023-03-21T18:40:55.256Z,9.32
2023-03-21T18:46:09.169Z,9.23
2023-03-21T18:48:36.426Z,9.32
2023-03-21T18:51:03.878Z,9.82
2023-03-21T18:53:30.803Z,8.85
2023-03-21T18:55:57.680Z,8.85
2023-03-21T18:58:24.908Z,8.23
2023-03-21T19:00:53.491Z,10.00
2023-03-21T19:03:34.743Z,9.68
2023-03-21T19:06:03.741Z,9.52
2023-03-21T19:08:30.948Z,10.15
2023-03-21T19:11:00.243Z,9.20
2023-03-21T19:13:28.315Z,9.95
2023-03-21T19:15:56.206Z,10.38
2023-03-21T19:18:41.521Z,10.45
2023-03-21T19:21:09.862Z,10.40
2023-03-21T19:24:07.926Z,9.85
2023-03-21T19:26:24.050Z,7.65
2023-03-21T19:28:50.746Z,9.82
2023-03-21T19:31:18.929Z,9.65
2023-03-21T19:33:46.097Z,9.65
2023-03-21T19:36:21.631Z,8.65
2023-03-21T19:38:48.605Z,10.38
2023-03-21T19:41:15.416Z,10.20
2023-03-21T19:43:52.863Z,10.13
2023-03-21T19:46:22.515Z,9.90
2023-03-21T19:48:50.056Z,9.90
2023-03-21T19:51:33.148Z,10.80
2023-03-21T19:54:03.229Z,11.82
2023-03-21T19:56:31.510Z,10.05
2023-03-21T19:58:58.574Z,8.98
2023-03-21T20:01:26.893Z,9.93
2023-03-21T20:03:53.931Z,9.85
2023-03-21T20:06:23.620Z,9.52
2023-03-21T20:09:37.982Z,10.27
2023-03-21T20:11:38.270Z,9.75
2023-03-21T20:14:06.208Z,10.32
2023-03-21T20:16:35.967Z,9.68
2023-03-21T20:19:08.936Z,9.95
2023-03-21T20:21:48.238Z,10.00
2023-03-21T20:24:18.858Z,9.25
2023-03-21T20:26:45.903Z,8.98
2023-03-21T20:30:07.065Z,8.18
2023-03-21T20:31:59.568Z,9.30
2023-03-21T20:34:26.286Z,8.85
2023-03-21T20:36:53.189Z,9.15
2023-03-21T20:39:19.896Z,8.55
2023-03-21T20:41:46.699Z,9.07
2023-03-21T20:44:44.828Z,8.02
2023-03-21T20:47:00.409Z,9.35
2023-03-21T20:49:28.437Z,8.35
2023-03-21T20:54:42.169Z,9.20
2023-03-21T20:57:09.085Z,8.95
2023-03-21T20:59:35.829Z,7.75
2023-03-21T21:02:03.619Z,8.45
2023-03-21T21:04:52.850Z,8.27
2023-03-21T21:07:20.826Z,8.05
2023-03-21T21:09:48.184Z,8.52
2023-03-21T21:12:16.521Z,8.70
2023-03-21T21:14:43.988Z,8.05
2023-03-21T21:17:28.414Z,8.57
2023-03-21T21:19:57.542Z,7.85
2023-03-21T21:22:24.151Z,8.50
2023-03-21T21:24:52.562Z,8.13
2023-03-21T21:27:19.905Z,7.28
2023-03-21T21:29:49.831Z,7.88
2023-03-21T21:32:16.931Z,8.02
2023-03-21T21:34:43.597Z,8.10
2023-03-21T21:37:10.576Z,8.00
2023-03-21T21:39:38.489Z,8.15
2023-03-21T21:42:07.480Z,7.55
2023-03-21T21:44:34.065Z,7.80
2023-03-21T21:47:04.034Z,7.00
2023-03-21T21:49:31.106Z,8.77
2023-03-21T21:51:59.766Z,7.68
2023-03-21T21:54:30.017Z,8.48
2023-03-21T21:56:57.991Z,8.13
2023-03-21T21:59:25.099Z,7.68
2023-03-21T22:01:51.774Z,7.65
2023-03-21T22:04:27.649Z,7.38
2023-03-21T22:06:57.277Z,7.55
2023-03-21T22:09:23.897Z,7.25
2023-03-21T22:11:50.462Z,8.00
2023-03-21T22:14:17.189Z,7.10
2023-03-21T22:16:44.068Z,7.75
2023-03-21T22:19:10.647Z,7.30
2023-03-21T22:21:37.944Z,6.95
2023-03-21T22:24:04.968Z,8.25
2023-03-21T22:26:31.746Z,6.88
2023-03-21T22:28:59.772Z,8.27
2023-03-21T22:31:26.468Z,8.60
2023-03-21T22:33:53.023Z,7.63
2023-03-21T22:36:20.089Z,8.23
2023-03-21T22:38:47.748Z,8.43
2023-03-21T22:41:14.409Z,8.40
2023-03-21T22:43:40.994Z,8.07
2023-03-21T22:46:07.818Z,7.05
2023-03-21T22:48:34.748Z,6.50
2023-03-21T22:51:01.376Z,8.05
2023-03-21T22:53:28.238Z,7.20
2023-03-21T22:55:55.551Z,7.25
2023-03-21T22:58:22.159Z,7.22
2023-03-21T23:00:48.813Z,6.93
2023-03-21T23:03:16.911Z,6.53
2023-03-21T23:05:44.812Z,6.63
2023-03-21T23:08:12.432Z,6.63
2023-03-21T23:10:40.449Z,5.93
2023-03-21T23:13:07.206Z,7.25
2023-03-21T23:15:34.037Z,7.03
2023-03-21T23:18:00.679Z,6.25
2023-03-21T23:20:27.479Z,6.40
2023-03-21T23:22:54.485Z,6.78
2023-03-21T23:25:21.198Z,7.18
2023-03-21T23:27:48.261Z,5.75
2023-03-21T23:30:15.257Z,6.53
2023-03-21T23:32:42.527Z,6.45
2023-03-21T23:35:09.804Z,6.53
2023-03-21T23:37:36.794Z,6.63
2023-03-21T23:40:06.086Z,6.13
2023-03-21T23:42:34.033Z,6.38
2023-03-21T23:45:00.765Z,6.30
2023-03-21T23:47:27.557Z,6.32
2023-03-21T23:49:54.430Z,6.72
2023-03-21T23:52:21.375Z,6.68
2023-03-21T23:54:47.964Z,6.55
2023-03-21T23:57:14.645Z,6.90
2023-03-21T23:59:41.224Z,5.78
